Terminal Aerodrome Forecast
Issued by NWS

Home | Current Version | Previous Version | Text Only | Print | Product List | Glossary On
Versions: 1 2 3 4 5 6 7 8 9 10 11 12 13 14 15 16 17 18 19 20 21 22 23 24
693
FTUS43 KDLH 061733
TAFHYR
TAF
KHYR 061733Z 0618/0718 19010KT P6SM OVC100
     FM070100 20009KT 6SM -SN OVC030 WS020/24040KT
     FM070600 21008KT P6SM OVC015
     FM071500 23008KT 3SM -SN OVC015=

USA.gov is the U.S. government's official web portal to all federal, state and local government web resources and services.